sensor_id;sensor_type;location;lat;lon;timestamp;pressure;altitude;pressure_sealevel;temperature;humidity
4570;BME280;2297;51.442;6.996;2023-04-21T00:02:02;100187.88;;;11.60;50.71
4570;BME280;2297;51.442;6.996;2023-04-21T00:04:30;100188.69;;;11.63;50.87
4570;BME280;2297;51.442;6.996;2023-04-21T00:06:56;100186.97;;;11.61;50.43
4570;BME280;2297;51.442;6.996;2023-04-21T00:09:25;100186.22;;;11.56;50.71
4570;BME280;2297;51.442;6.996;2023-04-21T00:11:52;100184.47;;;11.56;50.97
4570;BME280;2297;51.442;6.996;2023-04-21T00:14:19;100174.00;;;11.52;51.22
4570;BME280;2297;51.442;6.996;2023-04-21T00:16:45;100181.13;;;11.50;51.34
4570;BME280;2297;51.442;6.996;2023-04-21T00:19:16;100166.25;;;11.45;51.45
4570;BME280;2297;51.442;6.996;2023-04-21T00:21:45;100182.94;;;11.47;51.56
4570;BME280;2297;51.442;6.996;2023-04-21T00:24:12;100180.13;;;11.54;51.55
4570;BME280;2297;51.442;6.996;2023-04-21T00:26:38;100174.00;;;11.52;51.68
4570;BME280;2297;51.442;6.996;2023-04-21T00:29:05;100160.84;;;11.50;51.60
4570;BME280;2297;51.442;6.996;2023-04-21T00:31:31;100172.50;;;11.41;52.10
4570;BME280;2297;51.442;6.996;2023-04-21T00:33:58;100159.38;;;11.38;52.47
4570;BME280;2297;51.442;6.996;2023-04-21T00:36:25;100156.84;;;11.35;52.69
4570;BME280;2297;51.442;6.996;2023-04-21T00:38:54;100149.00;;;11.30;52.36
4570;BME280;2297;51.442;6.996;2023-04-21T00:41:20;100141.28;;;11.23;52.98
4570;BME280;2297;51.442;6.996;2023-04-21T00:44:01;100133.28;;;11.26;52.95
4570;BME280;2297;51.442;6.996;2023-04-21T00:46:28;100143.75;;;11.29;52.85
4570;BME280;2297;51.442;6.996;2023-04-21T00:48:54;100135.94;;;11.26;52.60
4570;BME280;2297;51.442;6.996;2023-04-21T00:51:21;100135.13;;;11.22;52.81
4570;BME280;2297;51.442;6.996;2023-04-21T00:53:49;100137.91;;;11.18;52.96
4570;BME280;2297;51.442;6.996;2023-04-21T00:56:17;100142.47;;;11.09;53.53
4570;BME280;2297;51.442;6.996;2023-04-21T00:58:47;100143.34;;;11.11;53.29
4570;BME280;2297;51.442;6.996;2023-04-21T01:01:14;100140.69;;;11.11;53.39
4570;BME280;2297;51.442;6.996;2023-04-21T01:03:41;100138.81;;;11.17;53.75
4570;BME280;2297;51.442;6.996;2023-04-21T01:06:08;100145.78;;;11.19;53.24
4570;BME280;2297;51.442;6.996;2023-04-21T01:08:35;100135.19;;;11.21;53.36
4570;BME280;2297;51.442;6.996;2023-04-21T01:11:08;100125.50;;;11.20;53.45
4570;BME280;2297;51.442;6.996;2023-04-21T01:13:36;100127.09;;;11.27;53.40
4570;BME280;2297;51.442;6.996;2023-04-21T01:16:04;100128.00;;;11.26;53.10
4570;BME280;2297;51.442;6.996;2023-04-21T01:18:31;100130.78;;;11.20;53.34
4570;BME280;2297;51.442;6.996;2023-04-21T01:20:57;100140.63;;;11.14;53.57
4570;BME280;2297;51.442;6.996;2023-04-21T01:23:25;100128.38;;;11.10;53.85
4570;BME280;2297;51.442;6.996;2023-04-21T01:25:52;100128.38;;;11.10;54.05
4570;BME280;2297;51.442;6.996;2023-04-21T01:28:20;100129.44;;;11.03;54.02
4570;BME280;2297;51.442;6.996;2023-04-21T01:30:47;100115.31;;;11.04;54.13
4570;BME280;2297;51.442;6.996;2023-04-21T01:33:17;100112.63;;;11.06;54.39
4570;BME280;2297;51.442;6.996;2023-04-21T01:35:44;100115.28;;;11.06;54.45
4570;BME280;2297;51.442;6.996;2023-04-21T01:38:11;100122.19;;;11.11;54.21
4570;BME280;2297;51.442;6.996;2023-04-21T01:40:39;100128.38;;;11.10;54.24
4570;BME280;2297;51.442;6.996;2023-04-21T01:43:07;100126.63;;;11.11;54.25
4570;BME280;2297;51.442;6.996;2023-04-21T01:45:34;100121.25;;;11.14;54.53
4570;BME280;2297;51.442;6.996;2023-04-21T01:48:04;100127.44;;;11.13;54.37
4570;BME280;2297;51.442;6.996;2023-04-21T01:50:31;100120.25;;;11.18;54.22
4570;BME280;2297;51.442;6.996;2023-04-21T01:52:57;100116.66;;;11.21;54.33
4570;BME280;2297;51.442;6.996;2023-04-21T01:55:24;100109.56;;;11.23;54.16
4570;BME280;2297;51.442;6.996;2023-04-21T01:57:52;100107.00;;;11.20;54.32
4570;BME280;2297;51.442;6.996;2023-04-21T02:00:18;100113.28;;;11.16;54.22
4570;BME280;2297;51.442;6.996;2023-04-21T02:02:45;100115.91;;;11.16;54.36
4570;BME280;2297;51.442;6.996;2023-04-21T02:05:12;100116.81;;;11.14;54.44
4570;BME280;2297;51.442;6.996;2023-04-21T02:07:38;100116.81;;;11.14;54.95
4570;BME280;2297;51.442;6.996;2023-04-21T02:10:06;100114.94;;;11.20;54.52
4570;BME280;2297;51.442;6.996;2023-04-21T02:12:32;100120.22;;;11.20;54.74
4570;BME280;2297;51.442;6.996;2023-04-21T02:15:02;100119.41;;;11.18;54.63
4570;BME280;2297;51.442;6.996;2023-04-21T02:17:28;100119.41;;;11.18;54.53
4570;BME280;2297;51.442;6.996;2023-04-21T02:19:56;100121.97;;;11.21;54.56
4570;BME280;2297;51.442;6.996;2023-04-21T02:22:23;100109.59;;;11.21;54.18
4570;BME280;2297;51.442;6.996;2023-04-21T02:24:49;100113.97;;;11.22;54.57
4570;BME280;2297;51.442;6.996;2023-04-21T02:27:16;100114.84;;;11.23;54.23
4570;BME280;2297;51.442;6.996;2023-04-21T02:29:43;100114.03;;;11.21;54.58
4570;BME280;2297;51.442;6.996;2023-04-21T02:32:11;100103.31;;;11.25;54.44
4570;BME280;2297;51.442;6.996;2023-04-21T02:34:37;100115.72;;;11.23;54.47
4570;BME280;2297;51.442;6.996;2023-04-21T02:37:06;100111.28;;;11.24;54.16
4570;BME280;2297;51.442;6.996;2023-04-21T02:39:35;100108.66;;;11.24;54.26
4570;BME280;2297;51.442;6.996;2023-04-21T02:42:02;100107.78;;;11.23;54.14
4570;BME280;2297;51.442;6.996;2023-04-21T02:44:29;100108.59;;;11.25;54.32
4570;BME280;2297;51.442;6.996;2023-04-21T02:46:55;100106.06;;;11.22;54.24
4570;BME280;2297;51.442;6.996;2023-04-21T02:49:23;100102.38;;;11.28;54.18
4570;BME280;2297;51.442;6.996;2023-04-21T02:51:50;100106.09;;;11.21;54.38
4570;BME280;2297;51.442;6.996;2023-04-21T02:54:16;100107.00;;;11.20;54.30
4570;BME280;2297;51.442;6.996;2023-04-21T02:56:43;100111.47;;;11.18;54.35
4570;BME280;2297;51.442;6.996;2023-04-21T02:59:10;100104.44;;;11.17;54.36
4570;BME280;2297;51.442;6.996;2023-04-21T03:01:42;100099.16;;;11.17;54.44
4570;BME280;2297;51.442;6.996;2023-04-21T03:04:10;100101.72;;;11.20;54.34
4570;BME280;2297;51.442;6.996;2023-04-21T03:06:38;100101.66;;;11.21;54.35
4570;BME280;2297;51.442;6.996;2023-04-21T03:09:05;100101.63;;;11.23;54.37
4570;BME280;2297;51.442;6.996;2023-04-21T03:11:32;100107.84;;;11.22;54.62
4570;BME280;2297;51.442;6.996;2023-04-21T03:13:58;100109.56;;;11.23;54.65
4570;BME280;2297;51.442;6.996;2023-04-21T03:16:25;100108.66;;;11.24;54.47
4570;BME280;2297;51.442;6.996;2023-04-21T03:18:52;100106.00;;;11.24;54.46
4570;BME280;2297;51.442;6.996;2023-04-21T03:21:19;100111.28;;;11.24;54.37
4570;BME280;2297;51.442;6.996;2023-04-21T03:27:04;100113.97;;;11.22;54.44
4570;BME280;2297;51.442;6.996;2023-04-21T03:29:30;100111.38;;;11.21;54.56
4570;BME280;2297;51.442;6.996;2023-04-21T03:31:57;100109.56;;;11.23;54.47
4570;BME280;2297;51.442;6.996;2023-04-21T03:34:24;100121.97;;;11.21;54.40
4570;BME280;2297;51.442;6.996;2023-04-21T03:36:50;100112.34;;;11.18;54.66
4570;BME280;2297;51.442;6.996;2023-04-21T03:39:17;100115.03;;;11.17;54.72
4570;BME280;2297;51.442;6.996;2023-04-21T03:41:44;100104.41;;;11.18;54.66
4570;BME280;2297;51.442;6.996;2023-04-21T03:44:11;100109.78;;;11.15;54.80
4570;BME280;2297;51.442;6.996;2023-04-21T03:46:38;100098.28;;;11.16;54.98
4570;BME280;2297;51.442;6.996;2023-04-21T03:49:05;100107.09;;;11.17;54.69
4570;BME280;2297;51.442;6.996;2023-04-21T03:51:31;100098.25;;;11.18;54.95
4570;BME280;2297;51.442;6.996;2023-04-21T03:53:58;100093.88;;;11.17;54.94
4570;BME280;2297;51.442;6.996;2023-04-21T03:56:24;100100.91;;;11.18;54.77
4570;BME280;2297;51.442;6.996;2023-04-21T03:58:51;100095.63;;;11.16;54.88
4570;BME280;2297;51.442;6.996;2023-04-21T04:01:19;100090.50;;;11.11;54.99
4570;BME280;2297;51.442;6.996;2023-04-21T04:03:46;100090.41;;;11.14;54.73
4570;BME280;2297;51.442;6.996;2023-04-21T04:06:12;100092.22;;;11.12;55.12
4570;BME280;2297;51.442;6.996;2023-04-21T04:08:39;100093.00;;;11.16;54.91
4570;BME280;2297;51.442;6.996;2023-04-21T04:11:06;100098.28;;;11.16;54.95
4570;BME280;2297;51.442;6.996;2023-04-21T04:13:32;100104.53;;;11.13;55.01
4570;BME280;2297;51.442;6.996;2023-04-21T04:15:59;100096.63;;;11.12;55.23
4570;BME280;2297;51.442;6.996;2023-04-21T04:18:27;100097.50;;;11.12;55.20
4570;BME280;2297;51.442;6.996;2023-04-21T04:20:54;100097.47;;;11.14;55.23
4570;BME280;2297;51.442;6.996;2023-04-21T04:23:20;100099.16;;;11.17;55.20
4570;BME280;2297;51.442;6.996;2023-04-21T04:25:47;100092.88;;;11.21;55.18
4570;BME280;2297;51.442;6.996;2023-04-21T04:28:14;100089.34;;;11.22;54.97
4570;BME280;2297;51.442;6.996;2023-04-21T04:30:40;100083.13;;;11.23;55.19
4570;BME280;2297;51.442;6.996;2023-04-21T04:33:08;100075.16;;;11.24;54.89
4570;BME280;2297;51.442;6.996;2023-04-21T04:35:37;100077.94;;;11.20;54.96
4570;BME280;2297;51.442;6.996;2023-04-21T04:38:04;100085.84;;;11.20;54.77
4570;BME280;2297;51.442;6.996;2023-04-21T04:40:32;100092.13;;;11.16;54.90
4570;BME280;2297;51.442;6.996;2023-04-21T04:42:58;100099.38;;;11.07;55.01
4570;BME280;2297;51.442;6.996;2023-04-21T04:45:27;100102.81;;;11.09;55.04
4570;BME280;2297;51.442;6.996;2023-04-21T04:47:57;100101.13;;;11.08;55.24
4570;BME280;2297;51.442;6.996;2023-04-21T04:50:24;100107.19;;;11.12;55.09
4570;BME280;2297;51.442;6.996;2023-04-21T04:52:52;100100.97;;;11.14;54.72
4570;BME280;2297;51.442;6.996;2023-04-21T04:55:19;100107.19;;;11.13;54.68
4570;BME280;2297;51.442;6.996;2023-04-21T04:57:46;100102.09;;;11.04;55.06
4570;BME280;2297;51.442;6.996;2023-04-21T05:00:13;100104.75;;;11.04;55.01
4570;BME280;2297;51.442;6.996;2023-04-21T05:02:40;100102.13;;;11.03;55.07
4570;BME280;2297;51.442;6.996;2023-04-21T05:05:07;100113.50;;;11.06;55.04
4570;BME280;2297;51.442;6.996;2023-04-21T05:07:34;100106.41;;;11.08;54.86
4570;BME280;2297;51.442;6.996;2023-04-21T05:10:02;100113.44;;;11.08;54.89
4570;BME280;2297;51.442;6.996;2023-04-21T05:12:29;100103.78;;;11.07;54.98
4570;BME280;2297;51.442;6.996;2023-04-21T05:15:01;100109.03;;;11.08;54.67
4570;BME280;2297;51.442;6.996;2023-04-21T05:17:28;100111.63;;;11.10;54.85
4570;BME280;2297;51.442;6.996;2023-04-21T05:19:55;100110.94;;;11.03;54.66
4570;BME280;2297;51.442;6.996;2023-04-21T05:22:21;100105.00;;;10.95;55.47
4570;BME280;2297;51.442;6.996;2023-04-21T05:24:48;100105.00;;;10.95;55.10
4570;BME280;2297;51.442;6.996;2023-04-21T05:27:16;100105.84;;;10.95;55.15
4570;BME280;2297;51.442;6.996;2023-04-21T05:29:43;100110.22;;;10.96;55.28
4570;BME280;2297;51.442;6.996;2023-04-21T05:32:09;100111.13;;;10.95;55.19
4570;BME280;2297;51.442;6.996;2023-04-21T05:34:36;100112.16;;;10.90;55.32
4570;BME280;2297;51.442;6.996;2023-04-21T05:37:03;100107.78;;;10.89;55.69
4570;BME280;2297;51.442;6.996;2023-04-21T05:39:30;100113.88;;;10.91;55.68
4570;BME280;2297;51.442;6.996;2023-04-21T05:41:56;100121.56;;;11.02;55.52
4570;BME280;2297;51.442;6.996;2023-04-21T05:44:24;100116.25;;;11.02;55.08
4570;BME280;2297;51.442;6.996;2023-04-21T05:46:51;100117.41;;;10.91;55.60
4570;BME280;2297;51.442;6.996;2023-04-21T05:49:17;100112.06;;;10.93;56.21
4570;BME280;2297;51.442;6.996;2023-04-21T05:51:44;100118.13;;;10.98;56.27
4570;BME280;2297;51.442;6.996;2023-04-21T05:54:11;100122.31;;;11.05;55.88
4570;BME280;2297;51.442;6.996;2023-04-21T05:56:38;100121.47;;;11.05;55.59
4570;BME280;2297;51.442;6.996;2023-04-21T05:59:04;100121.41;;;11.06;55.98
4570;BME280;2297;51.442;6.996;2023-04-21T06:01:33;100114.56;;;10.99;56.54
4570;BME280;2297;51.442;6.996;2023-04-21T06:04:00;100123.09;;;11.10;55.92
4570;BME280;2297;51.442;6.996;2023-04-21T06:06:26;100115.78;;;11.22;55.62
4570;BME280;2297;51.442;6.996;2023-04-21T06:08:53;100114.78;;;11.26;55.88
4570;BME280;2297;51.442;6.996;2023-04-21T06:11:20;100118.16;;;11.31;56.01
4570;BME280;2297;51.442;6.996;2023-04-21T06:13:46;100119.63;;;11.41;55.60
4570;BME280;2297;51.442;6.996;2023-04-21T06:16:13;100123.69;;;11.55;55.33
4570;BME280;2297;51.442;6.996;2023-04-21T06:18:41;100116.25;;;11.68;55.41
4570;BME280;2297;51.442;6.996;2023-04-21T06:21:08;100113.56;;;11.69;55.26
4570;BME280;2297;51.442;6.996;2023-04-21T06:23:34;100120.44;;;11.76;55.11
4570;BME280;2297;51.442;6.996;2023-04-21T06:26:03;100119.47;;;11.79;55.22
4570;BME280;2297;51.442;6.996;2023-04-21T06:28:34;100112.28;;;11.84;55.22
4570;BME280;2297;51.442;6.996;2023-04-21T06:31:02;100116.41;;;11.93;55.24
4570;BME280;2297;51.442;6.996;2023-04-21T06:33:29;100118.94;;;11.97;55.20
4570;BME280;2297;51.442;6.996;2023-04-21T06:35:57;100101.16;;;12.03;55.04
4570;BME280;2297;51.442;6.996;2023-04-21T06:38:24;100101.91;;;12.06;55.27
4570;BME280;2297;51.442;6.996;2023-04-21T06:40:50;100107.00;;;12.12;55.02
4570;BME280;2297;51.442;6.996;2023-04-21T06:43:17;100102.44;;;12.18;54.82
4570;BME280;2297;51.442;6.996;2023-04-21T06:45:44;100103.31;;;12.20;54.94
4570;BME280;2297;51.442;6.996;2023-04-21T06:48:10;100099.66;;;12.24;54.57
4570;BME280;2297;51.442;6.996;2023-04-21T06:50:37;100104.00;;;12.26;54.35
4570;BME280;2297;51.442;6.996;2023-04-21T06:53:05;100098.72;;;12.25;54.42
4570;BME280;2297;51.442;6.996;2023-04-21T06:55:31;100104.84;;;12.27;54.23
4570;BME280;2297;51.442;6.996;2023-04-21T06:57:58;100110.13;;;12.27;54.44
4570;BME280;2297;51.442;6.996;2023-04-21T07:00:25;100114.53;;;12.28;54.47
4570;BME280;2297;51.442;6.996;2023-04-21T07:02:51;100111.78;;;12.31;54.17
4570;BME280;2297;51.442;6.996;2023-04-21T07:05:18;100114.38;;;12.33;54.39
4570;BME280;2297;51.442;6.996;2023-04-21T07:07:45;100111.59;;;12.37;54.46
4570;BME280;2297;51.442;6.996;2023-04-21T07:10:13;100116.78;;;12.40;54.44
4570;BME280;2297;51.442;6.996;2023-04-21T07:12:43;100109.56;;;12.45;54.40
4570;BME280;2297;51.442;6.996;2023-04-21T07:15:12;100098.91;;;12.47;54.48
4570;BME280;2297;51.442;6.996;2023-04-21T07:17:39;100099.75;;;12.49;54.25
4570;BME280;2297;51.442;6.996;2023-04-21T07:20:07;100101.44;;;12.50;53.90
4570;BME280;2297;51.442;6.996;2023-04-21T07:22:33;100093.56;;;12.48;54.46
4570;BME280;2297;51.442;6.996;2023-04-21T07:25:00;100089.88;;;12.53;54.07
4570;BME280;2297;51.442;6.996;2023-04-21T07:27:32;100095.28;;;12.50;54.96
4570;BME280;2297;51.442;6.996;2023-04-21T07:29:58;100102.03;;;12.60;54.74
4570;BME280;2297;51.442;6.996;2023-04-21T07:32:25;100106.19;;;12.67;54.21
4570;BME280;2297;51.442;6.996;2023-04-21T07:34:52;100094.88;;;12.62;54.45
4570;BME280;2297;51.442;6.996;2023-04-21T07:37:18;100100.81;;;12.70;54.42
4570;BME280;2297;51.442;6.996;2023-04-21T07:39:46;100092.75;;;12.73;54.53
4570;BME280;2297;51.442;6.996;2023-04-21T07:42:13;100099.56;;;12.80;54.15
4570;BME280;2297;51.442;6.996;2023-04-21T07:44:41;100090.63;;;12.85;53.82
4570;BME280;2297;51.442;6.996;2023-04-21T07:47:07;100089.69;;;12.86;53.99
4570;BME280;2297;51.442;6.996;2023-04-21T07:49:34;100099.25;;;12.90;54.17
4570;BME280;2297;51.442;6.996;2023-04-21T07:52:00;100088.34;;;12.99;54.04
4570;BME280;2297;51.442;6.996;2023-04-21T07:54:29;100091.72;;;13.04;53.61
4570;BME280;2297;51.442;6.996;2023-04-21T07:56:56;100090.47;;;13.14;53.49
4570;BME280;2297;51.442;6.996;2023-04-21T07:59:22;100096.81;;;13.10;53.54
4570;BME280;2297;51.442;6.996;2023-04-21T08:01:50;100093.25;;;13.11;53.30
4570;BME280;2297;51.442;6.996;2023-04-21T08:04:17;100084.38;;;13.12;53.70
4570;BME280;2297;51.442;6.996;2023-04-21T08:06:43;100087.72;;;13.18;53.66
4570;BME280;2297;51.442;6.996;2023-04-21T08:09:10;100091.19;;;13.20;53.49
4570;BME280;2297;51.442;6.996;2023-04-21T08:11:37;100095.56;;;13.21;53.64
4570;BME280;2297;51.442;6.996;2023-04-21T08:14:04;100097.22;;;13.25;53.58
4570;BME280;2297;51.442;6.996;2023-04-21T08:16:31;100096.50;;;13.20;53.70
4570;BME280;2297;51.442;6.996;2023-04-21T08:18:59;100090.19;;;13.24;53.97
4570;BME280;2297;51.442;6.996;2023-04-21T08:21:25;100081.78;;;13.36;53.66
4570;BME280;2297;51.442;6.996;2023-04-21T08:23:52;100082.31;;;13.46;53.65
4570;BME280;2297;51.442;6.996;2023-04-21T08:26:19;100095.31;;;13.54;53.57
4570;BME280;2297;51.442;6.996;2023-04-21T08:28:46;100100.28;;;13.63;53.54
4570;BME280;2297;51.442;6.996;2023-04-21T08:31:14;100102.13;;;13.61;53.52
4570;BME280;2297;51.442;6.996;2023-04-21T08:33:41;100105.69;;;13.60;53.63
4570;BME280;2297;51.442;6.996;2023-04-21T08:36:09;100094.66;;;13.71;53.26
4570;BME280;2297;51.442;6.996;2023-04-21T08:38:35;100094.84;;;13.66;53.19
4570;BME280;2297;51.442;6.996;2023-04-21T08:41:02;100097.84;;;13.80;53.07
4570;BME280;2297;51.442;6.996;2023-04-21T08:43:29;100094.84;;;13.90;52.78
4570;BME280;2297;51.442;6.996;2023-04-21T08:45:56;100099.81;;;13.99;52.70
4570;BME280;2297;51.442;6.996;2023-04-21T08:48:23;100096.81;;;14.08;52.52
4570;BME280;2297;51.442;6.996;2023-04-21T08:50:51;100096.53;;;14.14;52.53
4570;BME280;2297;51.442;6.996;2023-04-21T08:53:19;100092.13;;;14.15;52.09
4570;BME280;2297;51.442;6.996;2023-04-21T08:55:51;100094.69;;;14.17;51.82
4570;BME280;2297;51.442;6.996;2023-04-21T08:58:19;100093.09;;;14.12;51.86
4570;BME280;2297;51.442;6.996;2023-04-21T09:00:47;100094.69;;;14.17;51.87
4570;BME280;2297;51.442;6.996;2023-04-21T09:03:20;100098.22;;;14.19;51.88
4570;BME280;2297;51.442;6.996;2023-04-21T09:05:56;100096.13;;;14.27;51.85
4570;BME280;2297;51.442;6.996;2023-04-21T09:08:25;100096.97;;;14.27;51.73
4570;BME280;2297;51.442;6.996;2023-04-21T09:10:53;100094.25;;;14.29;51.42
4570;BME280;2297;51.442;6.996;2023-04-21T09:13:20;100099.31;;;14.35;51.29
4570;BME280;2297;51.442;6.996;2023-04-21T09:15:50;100103.56;;;14.39;51.59
4570;BME280;2297;51.442;6.996;2023-04-21T09:18:19;100097.09;;;14.46;51.13
4570;BME280;2297;51.442;6.996;2023-04-21T09:20:48;100096.66;;;14.35;51.05
4570;BME280;2297;51.442;6.996;2023-04-21T09:23:15;100100.56;;;14.49;50.70
4570;BME280;2297;51.442;6.996;2023-04-21T09:25:44;100093.69;;;14.43;51.06
4570;BME280;2297;51.442;6.996;2023-04-21T09:28:12;100100.31;;;14.55;50.55
4570;BME280;2297;51.442;6.996;2023-04-21T09:33:49;100093.19;;;14.77;50.26
4570;BME280;2297;51.442;6.996;2023-04-21T09:36:20;100093.97;;;14.79;50.11
4570;BME280;2297;51.442;6.996;2023-04-21T09:38:49;100089.53;;;14.80;49.67
4570;BME280;2297;51.442;6.996;2023-04-21T09:41:17;100093.72;;;14.86;49.04
4570;BME280;2297;51.442;6.996;2023-04-21T09:43:47;100090.38;;;14.80;49.47
4570;BME280;2297;51.442;6.996;2023-04-21T09:46:15;100090.38;;;14.80;49.57
4570;BME280;2297;51.442;6.996;2023-04-21T09:48:43;100089.91;;;14.91;49.48
4570;BME280;2297;51.442;6.996;2023-04-21T09:51:11;100099.16;;;15.03;49.33
4570;BME280;2297;51.442;6.996;2023-04-21T09:53:38;100077.72;;;15.08;49.03
4570;BME280;2297;51.442;6.996;2023-04-21T09:56:10;100085.50;;;15.12;48.93
4570;BME280;2297;51.442;6.996;2023-04-21T09:58:43;100090.56;;;15.19;48.78
4570;BME280;2297;51.442;6.996;2023-04-21T10:01:10;100086.84;;;15.23;48.26
4570;BME280;2297;51.442;6.996;2023-04-21T10:03:38;100077.78;;;15.27;48.21
4570;BME280;2297;51.442;6.996;2023-04-21T10:06:05;100077.94;;;15.24;48.24
4570;BME280;2297;51.442;6.996;2023-04-21T10:08:33;100061.31;;;15.19;48.37
4570;BME280;2297;51.442;6.996;2023-04-21T10:11:01;100055.19;;;15.17;48.15
4570;BME280;2297;51.442;6.996;2023-04-21T10:13:28;100061.66;;;15.11;48.40
4570;BME280;2297;51.442;6.996;2023-04-21T10:16:03;100050.13;;;15.10;48.55
4570;BME280;2297;51.442;6.996;2023-04-21T10:18:34;100058.19;;;15.09;48.57
4570;BME280;2297;51.442;6.996;2023-04-21T10:21:02;100053.97;;;15.03;48.63
4570;BME280;2297;51.442;6.996;2023-04-21T10:23:31;100059.09;;;15.08;48.47
4570;BME280;2297;51.442;6.996;2023-04-21T10:26:09;100053.72;;;15.09;48.22
4570;BME280;2297;51.442;6.996;2023-04-21T10:28:44;100053.06;;;15.25;47.94
4570;BME280;2297;51.442;6.996;2023-04-21T10:31:18;100062.13;;;15.21;48.09
4570;BME280;2297;51.442;6.996;2023-04-21T10:34:13;100060.06;;;15.27;47.67
4570;BME280;2297;51.442;6.996;2023-04-21T10:36:49;100063.41;;;15.31;47.52
4570;BME280;2297;51.442;6.996;2023-04-21T10:39:26;100057.41;;;15.27;47.66
4570;BME280;2297;51.442;6.996;2023-04-21T10:41:55;100057.44;;;15.26;47.77
4570;BME280;2297;51.442;6.996;2023-04-21T10:44:23;100058.84;;;15.35;47.19
4570;BME280;2297;51.442;6.996;2023-04-21T10:46:52;100056.97;;;15.37;47.13
4570;BME280;2297;51.442;6.996;2023-04-21T10:49:22;100049.19;;;15.32;47.38
4570;BME280;2297;51.442;6.996;2023-04-21T10:52:03;100049.19;;;15.32;47.43
4570;BME280;2297;51.442;6.996;2023-04-21T10:54:36;100044.47;;;15.39;47.36
4570;BME280;2297;51.442;6.996;2023-04-21T10:57:07;100047.69;;;15.45;47.31
4570;BME280;2297;51.442;6.996;2023-04-21T10:59:34;100041.72;;;15.40;47.22
4570;BME280;2297;51.442;6.996;2023-04-21T11:02:05;100036.22;;;15.45;46.94
4570;BME280;2297;51.442;6.996;2023-04-21T11:04:33;100031.72;;;15.45;46.88
4570;BME280;2297;51.442;6.996;2023-04-21T11:07:06;100031.19;;;15.58;46.84
4570;BME280;2297;51.442;6.996;2023-04-21T11:09:33;100030.03;;;15.63;46.56
4570;BME280;2297;51.442;6.996;2023-04-21T11:12:01;100018.81;;;15.57;46.34
4570;BME280;2297;51.442;6.996;2023-04-21T11:14:29;100018.81;;;15.57;46.39
4570;BME280;2297;51.442;6.996;2023-04-21T11:16:56;100024.34;;;15.71;46.27
4570;BME280;2297;51.442;6.996;2023-04-21T11:19:24;100019.97;;;15.70;46.34
4570;BME280;2297;51.442;6.996;2023-04-21T11:21:52;100013.41;;;15.77;45.95
4570;BME280;2297;51.442;6.996;2023-04-21T11:24:19;100014.50;;;15.92;46.10
4570;BME280;2297;51.442;6.996;2023-04-21T11:26:46;100005.22;;;16.01;46.10
4570;BME280;2297;51.442;6.996;2023-04-21T11:29:13;99996.56;;;16.15;45.48
4570;BME280;2297;51.442;6.996;2023-04-21T11:31:42;99993.28;;;16.27;45.11
4570;BME280;2297;51.442;6.996;2023-04-21T11:34:10;99982.44;;;16.30;44.63
4570;BME280;2297;51.442;6.996;2023-04-21T11:36:40;99987.28;;;16.41;44.66
4570;BME280;2297;51.442;6.996;2023-04-21T11:39:07;99973.69;;;16.46;44.63
4570;BME280;2297;51.442;6.996;2023-04-21T11:41:35;99965.16;;;16.57;44.37
4570;BME280;2297;51.442;6.996;2023-04-21T11:44:02;99962.63;;;16.71;43.90
4570;BME280;2297;51.442;6.996;2023-04-21T11:46:29;99970.31;;;16.77;44.01
4570;BME280;2297;51.442;6.996;2023-04-21T11:49:00;99967.75;;;16.76;43.75
4570;BME280;2297;51.442;6.996;2023-04-21T11:51:32;99967.16;;;16.69;43.72
4570;BME280;2297;51.442;6.996;2023-04-21T11:54:01;99962.31;;;16.60;43.47
4570;BME280;2297;51.442;6.996;2023-04-21T11:56:27;99960.91;;;16.70;43.38
4570;BME280;2297;51.442;6.996;2023-04-21T11:58:54;99966.47;;;16.83;43.15
4570;BME280;2297;51.442;6.996;2023-04-21T12:01:21;99956.13;;;16.94;43.30
4570;BME280;2297;51.442;6.996;2023-04-21T12:03:51;99956.09;;;17.12;42.29
4570;BME280;2297;51.442;6.996;2023-04-21T12:06:22;99943.72;;;17.27;42.04
4570;BME280;2297;51.442;6.996;2023-04-21T12:08:54;99953.09;;;17.34;42.28
4570;BME280;2297;51.442;6.996;2023-04-21T12:11:23;99946.66;;;17.38;42.12
4570;BME280;2297;51.442;6.996;2023-04-21T12:13:50;99940.97;;;17.44;41.60
4570;BME280;2297;51.442;6.996;2023-04-21T12:16:17;99930.47;;;17.25;41.74
4570;BME280;2297;51.442;6.996;2023-04-21T12:18:43;99934.16;;;17.23;41.57
4570;BME280;2297;51.442;6.996;2023-04-21T12:21:13;99931.50;;;17.23;41.79
4570;BME280;2297;51.442;6.996;2023-04-21T12:23:40;99931.66;;;17.20;41.95
4570;BME280;2297;51.442;6.996;2023-04-21T12:26:09;99932.84;;;17.14;41.80
4570;BME280;2297;51.442;6.996;2023-04-21T12:28:37;99929.22;;;17.15;41.74
4570;BME280;2297;51.442;6.996;2023-04-21T12:31:04;99921.50;;;17.10;41.47
4570;BME280;2297;51.442;6.996;2023-04-21T12:33:31;99911.25;;;17.03;41.89
4570;BME280;2297;51.442;6.996;2023-04-21T12:35:57;99908.75;;;17.16;41.91
4570;BME280;2297;51.442;6.996;2023-04-21T12:38:24;99909.34;;;17.21;41.68
4570;BME280;2297;51.442;6.996;2023-04-21T12:40:51;99906.03;;;17.33;41.24
4570;BME280;2297;51.442;6.996;2023-04-21T12:43:18;99897.22;;;17.47;40.95
4570;BME280;2297;51.442;6.996;2023-04-21T12:45:46;99898.69;;;17.53;41.08
4570;BME280;2297;51.442;6.996;2023-04-21T12:48:13;99897.50;;;17.74;40.56
4570;BME280;2297;51.442;6.996;2023-04-21T12:50:39;99895.78;;;17.73;40.32
4570;BME280;2297;51.442;6.996;2023-04-21T12:53:06;99887.03;;;17.86;39.75
4570;BME280;2297;51.442;6.996;2023-04-21T12:55:33;99890.50;;;17.88;39.90
4570;BME280;2297;51.442;6.996;2023-04-21T12:58:00;99885.00;;;17.75;40.31
4570;BME280;2297;51.442;6.996;2023-04-21T13:00:27;99880.69;;;17.72;40.18
4570;BME280;2297;51.442;6.996;2023-04-21T13:02:55;99877.69;;;17.78;40.11
4570;BME280;2297;51.442;6.996;2023-04-21T13:05:23;99878.09;;;17.87;40.30
4570;BME280;2297;51.442;6.996;2023-04-21T13:07:49;99875.31;;;17.88;40.08
4570;BME280;2297;51.442;6.996;2023-04-21T13:10:16;99870.88;;;17.89;40.07
4570;BME280;2297;51.442;6.996;2023-04-21T13:12:43;99865.53;;;17.89;39.74
4570;BME280;2297;51.442;6.996;2023-04-21T13:15:10;99857.66;;;17.86;40.10
4570;BME280;2297;51.442;6.996;2023-04-21T13:17:37;99854.31;;;17.98;39.49
4570;BME280;2297;51.442;6.996;2023-04-21T13:20:06;99856.53;;;17.90;39.55
4570;BME280;2297;51.442;6.996;2023-04-21T13:22:32;99853.31;;;17.85;39.81